»·PEaware :: N172TT KSNA-KSNA

N172TT :: KSNA-KSNA

FLIGHT INFORMATION

Flight Status: Arrived
Operator: Privately registered:
United States
More flights under this callsign
Pilot: Thomas T. (19955)
Aircraft: CESSNA 172 SKYHAWK
(C172)
More flights by this aircraft type
Origin: KSNA John Wayne-Orange Co
United States
Destination: KSNA John Wayne-Orange Co
United States
More flights between these airports :: More routes between these airports
Route: +SLI
File this flight plan on PilotEdge
Remarks: TRAING FLIGHT
Altitude:
(Current/Filed)
3,000ft
Speed:
(Current/Filed)
118kts
Departed: 21-Sep-18 11:37 AM
Arrived: 21-Sep-18 12:25 PM
Distance/Time
Traveled:
0nm/0:48
Distance/Time
To Go:
Arrived

Flight Plot

Page will automatically refresh every two minutes.


Map Options




Map Legend


Flown Route
Filed Route
Departure Airport
Arrival Airport
Navaid (VOR, NDB)
Fix

Horizontal Profiles

Position Reports

Time Latitude Longitude Heading Altitude Ground
Speed
21-Sep-18 11:22 33.676080 -117.870909 219 60ft 0kts
21-Sep-18 11:23 33.676080 -117.870909 219 60ft 0kts
21-Sep-18 11:24 33.676080 -117.870909 219 60ft 0kts
21-Sep-18 11:25 33.676080 -117.870909 219 60ft 0kts
21-Sep-18 11:27 33.676080 -117.870909 219 60ft 0kts
21-Sep-18 11:28 33.676080 -117.870909 219 60ft 0kts
21-Sep-18 11:29 33.676080 -117.870909 219 60ft 0kts
21-Sep-18 11:30 33.676080 -117.870909 219 60ft 0kts
21-Sep-18 11:31 33.676080 -117.870909 219 60ft 0kts
21-Sep-18 11:32 33.676080 -117.870909 219 60ft 0kts
21-Sep-18 11:33 33.676980 -117.869503 25 60ft 17kts
21-Sep-18 11:34 33.679724 -117.867936 23 60ft 0kts
21-Sep-18 11:35 33.679724 -117.867936 23 60ft 0kts
21-Sep-18 11:36 33.679724 -117.867935 22 60ft 0kts
21-Sep-18 11:37 33.680953 -117.867166 32 60ft 12kts
21-Sep-18 11:38 33.680747 -117.865714 166 60ft 11kts
21-Sep-18 11:39 33.671439 -117.872681 219 348ft 81kts
21-Sep-18 11:40 33.658120 -117.892333 230 818ft 96kts
21-Sep-18 11:41 33.645266 -117.911802 240 1221ft 90kts
21-Sep-18 11:42 33.654950 -117.927433 1 1591ft 97kts
21-Sep-18 11:43 33.673731 -117.922728 13 1943ft 98kts
21-Sep-18 11:44 33.695003 -117.916726 11 2345ft 97kts
21-Sep-18 11:45 33.718110 -117.910673 11 2783ft 96kts
21-Sep-18 11:46 33.740147 -117.904925 11 2998ft 116kts
21-Sep-18 11:47 33.765330 -117.898305 12 2999ft 120kts
21-Sep-18 11:48 33.790652 -117.891648 12 2999ft 119kts
21-Sep-18 11:49 33.815005 -117.885258 11 2999ft 119kts
21-Sep-18 11:50 33.838418 -117.879125 11 2998ft 119kts
21-Sep-18 11:51 33.853900 -117.860526 84 2983ft 120kts
21-Sep-18 11:52 33.855738 -117.829681 85 2982ft 117kts
21-Sep-18 11:53 33.857506 -117.798690 87 2981ft 116kts
21-Sep-18 11:54 33.852740 -117.768491 138 2971ft 116kts
21-Sep-18 11:55 33.828290 -117.772946 209 2960ft 116kts
21-Sep-18 11:56 33.806830 -117.787052 205 2830ft 117kts
21-Sep-18 11:57 33.787810 -117.797624 205 2457ft 121kts
21-Sep-18 11:58 33.770690 -117.808313 211 2080ft 109kts
21-Sep-18 11:59 33.755535 -117.818615 206 1733ft 104kts
21-Sep-18 12:00 33.740698 -117.827415 206 1394ft 94kts
21-Sep-18 12:01 33.726276 -117.836862 211 1083ft 84kts
21-Sep-18 12:02 33.712075 -117.846504 201 770ft 73kts
21-Sep-18 12:03 33.695712 -117.857445 218 194ft 93kts
21-Sep-18 12:04 33.674329 -117.867894 199 492ft 87kts
21-Sep-18 12:05 33.660643 -117.885521 230 927ft 77kts
21-Sep-18 12:06 33.650034 -117.901656 230 1415ft 74kts
21-Sep-18 12:07 33.642238 -117.913477 230 1782ft 73kts
21-Sep-18 12:08 33.636014 -117.923203 234 2093ft 68kts
21-Sep-18 12:09 33.647734 -117.934981 4 2615ft 78kts
21-Sep-18 12:10 33.669265 -117.931166 7 3071ft 83kts
21-Sep-18 12:11 33.694465 -117.925502 8 3080ft 96kts
21-Sep-18 12:12 33.725695 -117.918807 8 3064ft 127kts
21-Sep-18 12:13 33.760301 -117.911514 8 3066ft 126kts
21-Sep-18 12:14 33.794517 -117.904122 8 3068ft 125kts
21-Sep-18 12:15 33.828440 -117.896562 8 3069ft 123kts
21-Sep-18 12:16 33.861521 -117.888651 25 3063ft 122kts
21-Sep-18 12:17 33.867434 -117.849923 92 3050ft 124kts
21-Sep-18 12:18 33.865190 -117.808550 92 3049ft 124kts
21-Sep-18 12:19 33.861024 -117.767350 127 3041ft 125kts
21-Sep-18 12:20 33.830922 -117.771387 210 3026ft 119kts
21-Sep-18 12:21 33.801775 -117.788279 205 2818ft 119kts
21-Sep-18 12:22 33.772480 -117.807384 210 2156ft 118kts
21-Sep-18 12:23 33.745227 -117.825468 207 1521ft 107kts
21-Sep-18 12:24 33.720106 -117.840002 207 951ft 98kts
21-Sep-18 12:25 33.701735 -117.852712 211 519ft 61kts
21-Sep-18 12:26 33.686538 -117.861951 207 224ft 62kts
21-Sep-18 12:27 33.677996 -117.868116 291 60ft 11kts
21-Sep-18 12:28 33.679155 -117.868319 245 60ft 4kts
21-Sep-18 12:29 33.678897 -117.868781 203 60ft 0kts
21-Sep-18 12:30 33.678897 -117.868781 203 60ft 0kts
21-Sep-18 12:31 33.678897 -117.868781 203 60ft 0kts
21-Sep-18 12:32 33.678897 -117.868781 203 60ft 0kts
21-Sep-18 12:33 33.678897 -117.868781 203 60ft 0kts
21-Sep-18 12:34 33.678897 -117.868781 203 60ft 0kts
21-Sep-18 12:35 33.678897 -117.868781 203 60ft 0kts
21-Sep-18 12:36 33.678897 -117.868781 203 60ft 0kts
21-Sep-18 12:37 33.678897 -117.868781 203 60ft 0kts
21-Sep-18 12:38 33.678897 -117.868781 203 60ft 0kts
21-Sep-18 12:39 33.678897 -117.868781 203 60ft 0kts
21-Sep-18 12:40 33.678897 -117.868781 203 60ft 0kts
21-Sep-18 12:41 33.678897 -117.868781 203 60ft 0kts

Navigation Log

Ident Type
1. KSNA Airport
2. SLI Navaid
3. KSNA Airport